sensor_id;sensor_type;location;lat;lon;timestamp;P1;durP1;ratioP1;P2;durP2;ratioP2
26014;SDS011;13793;55.388;37.844;2024-02-23T00:00:50;72.73;;;32.60;;
26014;SDS011;13793;55.388;37.844;2024-02-23T00:03:21;70.73;;;31.67;;
26014;SDS011;13793;55.388;37.844;2024-02-23T00:05:52;72.80;;;32.53;;
26014;SDS011;13793;55.388;37.844;2024-02-23T00:08:22;71.97;;;33.43;;
26014;SDS011;13793;55.388;37.844;2024-02-23T00:10:53;72.93;;;33.10;;
26014;SDS011;13793;55.388;37.844;2024-02-23T00:13:24;74.70;;;32.97;;
26014;SDS011;13793;55.388;37.844;2024-02-23T00:15:54;71.30;;;32.13;;
26014;SDS011;13793;55.388;37.844;2024-02-23T00:18:26;72.93;;;31.40;;
26014;SDS011;13793;55.388;37.844;2024-02-23T00:20:57;69.90;;;30.90;;
26014;SDS011;13793;55.388;37.844;2024-02-23T00:23:27;73.73;;;31.27;;
26014;SDS011;13793;55.388;37.844;2024-02-23T00:25:59;71.37;;;32.47;;
26014;SDS011;13793;55.388;37.844;2024-02-23T00:28:30;66.70;;;30.60;;
26014;SDS011;13793;55.388;37.844;2024-02-23T00:31:00;71.30;;;31.00;;
26014;SDS011;13793;55.388;37.844;2024-02-23T00:33:31;71.13;;;31.60;;
26014;SDS011;13793;55.388;37.844;2024-02-23T00:36:02;67.70;;;30.23;;
26014;SDS011;13793;55.388;37.844;2024-02-23T00:38:33;71.77;;;32.70;;
26014;SDS011;13793;55.388;37.844;2024-02-23T00:41:04;72.30;;;31.53;;
26014;SDS011;13793;55.388;37.844;2024-02-23T00:43:41;70.70;;;30.60;;
26014;SDS011;13793;55.388;37.844;2024-02-23T00:46:12;71.97;;;32.13;;
26014;SDS011;13793;55.388;37.844;2024-02-23T00:48:42;67.93;;;29.97;;
26014;SDS011;13793;55.388;37.844;2024-02-23T00:51:13;73.10;;;32.10;;
26014;SDS011;13793;55.388;37.844;2024-02-23T00:53:44;69.17;;;31.07;;
26014;SDS011;13793;55.388;37.844;2024-02-23T00:56:15;74.20;;;31.40;;
26014;SDS011;13793;55.388;37.844;2024-02-23T00:58:46;73.30;;;31.73;;
26014;SDS011;13793;55.388;37.844;2024-02-23T01:01:17;76.43;;;32.47;;
26014;SDS011;13793;55.388;37.844;2024-02-23T01:03:47;70.00;;;29.70;;
26014;SDS011;13793;55.388;37.844;2024-02-23T01:06:18;78.37;;;32.20;;
26014;SDS011;13793;55.388;37.844;2024-02-23T01:08:49;78.47;;;31.23;;
26014;SDS011;13793;55.388;37.844;2024-02-23T01:11:20;76.50;;;31.97;;
26014;SDS011;13793;55.388;37.844;2024-02-23T01:13:51;81.10;;;32.53;;
26014;SDS011;13793;55.388;37.844;2024-02-23T01:16:23;78.33;;;32.90;;
26014;SDS011;13793;55.388;37.844;2024-02-23T01:18:53;78.23;;;32.00;;
26014;SDS011;13793;55.388;37.844;2024-02-23T01:21:24;75.17;;;31.47;;
26014;SDS011;13793;55.388;37.844;2024-02-23T01:23:56;75.87;;;31.23;;
26014;SDS011;13793;55.388;37.844;2024-02-23T01:26:29;74.50;;;31.70;;
26014;SDS011;13793;55.388;37.844;2024-02-23T01:28:59;72.47;;;31.37;;
26014;SDS011;13793;55.388;37.844;2024-02-23T01:31:31;75.50;;;30.73;;
26014;SDS011;13793;55.388;37.844;2024-02-23T01:34:03;73.93;;;31.40;;
26014;SDS011;13793;55.388;37.844;2024-02-23T01:36:34;72.27;;;28.90;;
26014;SDS011;13793;55.388;37.844;2024-02-23T01:39:05;71.57;;;29.80;;
26014;SDS011;13793;55.388;37.844;2024-02-23T01:41:36;71.57;;;30.00;;
26014;SDS011;13793;55.388;37.844;2024-02-23T01:44:10;67.13;;;30.37;;
26014;SDS011;13793;55.388;37.844;2024-02-23T01:46:40;70.27;;;30.27;;
26014;SDS011;13793;55.388;37.844;2024-02-23T01:49:11;70.07;;;29.03;;
26014;SDS011;13793;55.388;37.844;2024-02-23T01:51:43;67.73;;;30.03;;
26014;SDS011;13793;55.388;37.844;2024-02-23T01:54:14;63.60;;;29.73;;
26014;SDS011;13793;55.388;37.844;2024-02-23T01:56:45;70.97;;;30.60;;
26014;SDS011;13793;55.388;37.844;2024-02-23T01:59:16;70.07;;;29.17;;
26014;SDS011;13793;55.388;37.844;2024-02-23T02:01:46;65.60;;;27.93;;
26014;SDS011;13793;55.388;37.844;2024-02-23T02:04:17;66.50;;;28.10;;
26014;SDS011;13793;55.388;37.844;2024-02-23T02:06:49;66.53;;;29.77;;
26014;SDS011;13793;55.388;37.844;2024-02-23T02:09:20;71.87;;;30.90;;
26014;SDS011;13793;55.388;37.844;2024-02-23T02:11:51;64.90;;;29.20;;
26014;SDS011;13793;55.388;37.844;2024-02-23T02:14:22;66.30;;;30.00;;
26014;SDS011;13793;55.388;37.844;2024-02-23T02:16:53;70.83;;;29.23;;
26014;SDS011;13793;55.388;37.844;2024-02-23T02:19:24;69.53;;;29.77;;
26014;SDS011;13793;55.388;37.844;2024-02-23T02:21:56;59.60;;;26.03;;
26014;SDS011;13793;55.388;37.844;2024-02-23T02:24:27;67.07;;;26.07;;
26014;SDS011;13793;55.388;37.844;2024-02-23T02:26:58;66.57;;;28.27;;
26014;SDS011;13793;55.388;37.844;2024-02-23T02:29:29;66.80;;;30.03;;
26014;SDS011;13793;55.388;37.844;2024-02-23T02:32:00;69.93;;;29.67;;
26014;SDS011;13793;55.388;37.844;2024-02-23T02:34:31;69.70;;;28.57;;
26014;SDS011;13793;55.388;37.844;2024-02-23T02:37:02;72.63;;;30.00;;
26014;SDS011;13793;55.388;37.844;2024-02-23T02:39:33;68.87;;;28.90;;
26014;SDS011;13793;55.388;37.844;2024-02-23T02:42:04;65.43;;;28.97;;
26014;SDS011;13793;55.388;37.844;2024-02-23T02:44:36;66.53;;;28.77;;
26014;SDS011;13793;55.388;37.844;2024-02-23T02:47:07;69.17;;;29.03;;
26014;SDS011;13793;55.388;37.844;2024-02-23T02:49:39;68.17;;;30.20;;
26014;SDS011;13793;55.388;37.844;2024-02-23T02:52:09;66.87;;;27.60;;
26014;SDS011;13793;55.388;37.844;2024-02-23T02:54:40;66.60;;;30.27;;
26014;SDS011;13793;55.388;37.844;2024-02-23T02:57:14;66.37;;;29.67;;
26014;SDS011;13793;55.388;37.844;2024-02-23T02:59:45;70.07;;;28.50;;
26014;SDS011;13793;55.388;37.844;2024-02-23T03:02:18;75.80;;;30.00;;
26014;SDS011;13793;55.388;37.844;2024-02-23T03:04:48;71.70;;;29.80;;
26014;SDS011;13793;55.388;37.844;2024-02-23T03:07:19;70.00;;;29.07;;
26014;SDS011;13793;55.388;37.844;2024-02-23T03:09:51;69.90;;;29.87;;
26014;SDS011;13793;55.388;37.844;2024-02-23T03:12:22;72.23;;;29.27;;
26014;SDS011;13793;55.388;37.844;2024-02-23T03:14:53;72.20;;;29.90;;
26014;SDS011;13793;55.388;37.844;2024-02-23T03:17:24;67.67;;;29.13;;
26014;SDS011;13793;55.388;37.844;2024-02-23T03:19:55;71.27;;;30.70;;
26014;SDS011;13793;55.388;37.844;2024-02-23T03:22:27;77.60;;;32.13;;
26014;SDS011;13793;55.388;37.844;2024-02-23T03:24:57;73.10;;;31.13;;
26014;SDS011;13793;55.388;37.844;2024-02-23T03:27:29;69.53;;;29.60;;
26014;SDS011;13793;55.388;37.844;2024-02-23T03:29:59;69.03;;;29.90;;
26014;SDS011;13793;55.388;37.844;2024-02-23T03:32:30;72.17;;;29.67;;
26014;SDS011;13793;55.388;37.844;2024-02-23T03:35:03;79.97;;;31.53;;
26014;SDS011;13793;55.388;37.844;2024-02-23T03:37:34;76.67;;;29.47;;
26014;SDS011;13793;55.388;37.844;2024-02-23T03:40:05;73.63;;;29.87;;
26014;SDS011;13793;55.388;37.844;2024-02-23T03:42:38;77.47;;;30.07;;
26014;SDS011;13793;55.388;37.844;2024-02-23T03:45:10;72.03;;;29.97;;
26014;SDS011;13793;55.388;37.844;2024-02-23T03:47:41;73.97;;;30.20;;
26014;SDS011;13793;55.388;37.844;2024-02-23T03:50:12;72.93;;;30.30;;
26014;SDS011;13793;55.388;37.844;2024-02-23T03:52:44;74.67;;;30.47;;
26014;SDS011;13793;55.388;37.844;2024-02-23T03:55:15;73.83;;;30.80;;
26014;SDS011;13793;55.388;37.844;2024-02-23T03:57:46;77.67;;;31.40;;
26014;SDS011;13793;55.388;37.844;2024-02-23T04:00:17;73.27;;;31.03;;
26014;SDS011;13793;55.388;37.844;2024-02-23T04:02:49;76.77;;;30.87;;
26014;SDS011;13793;55.388;37.844;2024-02-23T04:05:21;74.20;;;29.93;;
26014;SDS011;13793;55.388;37.844;2024-02-23T04:07:52;75.17;;;30.73;;
26014;SDS011;13793;55.388;37.844;2024-02-23T04:10:23;78.33;;;30.93;;
26014;SDS011;13793;55.388;37.844;2024-02-23T04:12:54;76.17;;;28.93;;
26014;SDS011;13793;55.388;37.844;2024-02-23T04:15:25;78.60;;;32.43;;
26014;SDS011;13793;55.388;37.844;2024-02-23T04:17:56;75.93;;;29.80;;
26014;SDS011;13793;55.388;37.844;2024-02-23T04:20:27;77.90;;;31.80;;
26014;SDS011;13793;55.388;37.844;2024-02-23T04:22:58;76.00;;;30.47;;
26014;SDS011;13793;55.388;37.844;2024-02-23T04:25:29;79.67;;;31.30;;
26014;SDS011;13793;55.388;37.844;2024-02-23T04:27:59;74.50;;;31.40;;
26014;SDS011;13793;55.388;37.844;2024-02-23T04:30:31;71.23;;;30.40;;
26014;SDS011;13793;55.388;37.844;2024-02-23T04:33:02;71.00;;;28.27;;
26014;SDS011;13793;55.388;37.844;2024-02-23T04:35:32;70.90;;;30.47;;
26014;SDS011;13793;55.388;37.844;2024-02-23T04:38:03;77.20;;;30.97;;
26014;SDS011;13793;55.388;37.844;2024-02-23T04:40:34;70.53;;;29.67;;
26014;SDS011;13793;55.388;37.844;2024-02-23T04:43:05;70.53;;;29.97;;
26014;SDS011;13793;55.388;37.844;2024-02-23T04:45:36;73.03;;;31.00;;
26014;SDS011;13793;55.388;37.844;2024-02-23T04:48:07;70.83;;;29.90;;
26014;SDS011;13793;55.388;37.844;2024-02-23T04:50:38;78.13;;;33.60;;
26014;SDS011;13793;55.388;37.844;2024-02-23T04:53:09;74.47;;;31.07;;
26014;SDS011;13793;55.388;37.844;2024-02-23T04:55:40;76.43;;;33.67;;
26014;SDS011;13793;55.388;37.844;2024-02-23T04:58:10;78.00;;;33.77;;
26014;SDS011;13793;55.388;37.844;2024-02-23T05:00:42;76.73;;;33.20;;
26014;SDS011;13793;55.388;37.844;2024-02-23T05:03:13;81.73;;;32.47;;
26014;SDS011;13793;55.388;37.844;2024-02-23T05:05:44;85.50;;;35.77;;
26014;SDS011;13793;55.388;37.844;2024-02-23T05:08:15;79.07;;;33.50;;
26014;SDS011;13793;55.388;37.844;2024-02-23T05:10:46;79.30;;;33.07;;
26014;SDS011;13793;55.388;37.844;2024-02-23T05:13:17;79.50;;;34.30;;
26014;SDS011;13793;55.388;37.844;2024-02-23T05:15:48;71.70;;;31.93;;
26014;SDS011;13793;55.388;37.844;2024-02-23T05:18:18;78.17;;;33.67;;
26014;SDS011;13793;55.388;37.844;2024-02-23T05:20:49;70.90;;;33.17;;
26014;SDS011;13793;55.388;37.844;2024-02-23T05:23:20;77.60;;;31.63;;
26014;SDS011;13793;55.388;37.844;2024-02-23T05:25:50;70.03;;;32.07;;
26014;SDS011;13793;55.388;37.844;2024-02-23T05:28:21;71.37;;;31.27;;
26014;SDS011;13793;55.388;37.844;2024-02-23T05:30:52;79.37;;;35.10;;
26014;SDS011;13793;55.388;37.844;2024-02-23T05:33:24;75.33;;;32.33;;
26014;SDS011;13793;55.388;37.844;2024-02-23T05:35:55;69.53;;;30.50;;
26014;SDS011;13793;55.388;37.844;2024-02-23T05:38:26;75.07;;;32.83;;
26014;SDS011;13793;55.388;37.844;2024-02-23T05:40:57;76.50;;;32.43;;
26014;SDS011;13793;55.388;37.844;2024-02-23T05:43:27;73.67;;;32.23;;
26014;SDS011;13793;55.388;37.844;2024-02-23T05:45:58;72.20;;;32.17;;
26014;SDS011;13793;55.388;37.844;2024-02-23T05:48:28;71.23;;;30.90;;
26014;SDS011;13793;55.388;37.844;2024-02-23T05:50:59;76.20;;;33.00;;
26014;SDS011;13793;55.388;37.844;2024-02-23T05:53:30;72.83;;;32.03;;
26014;SDS011;13793;55.388;37.844;2024-02-23T05:56:01;72.13;;;31.10;;
26014;SDS011;13793;55.388;37.844;2024-02-23T05:58:32;68.97;;;31.03;;
26014;SDS011;13793;55.388;37.844;2024-02-23T06:01:04;75.30;;;32.20;;
26014;SDS011;13793;55.388;37.844;2024-02-23T06:03:35;74.43;;;32.80;;
26014;SDS011;13793;55.388;37.844;2024-02-23T06:06:09;73.40;;;33.50;;
26014;SDS011;13793;55.388;37.844;2024-02-23T06:08:40;64.83;;;27.43;;
26014;SDS011;13793;55.388;37.844;2024-02-23T06:11:10;74.60;;;30.57;;
26014;SDS011;13793;55.388;37.844;2024-02-23T06:13:42;69.00;;;30.17;;
26014;SDS011;13793;55.388;37.844;2024-02-23T06:16:13;69.10;;;30.30;;
26014;SDS011;13793;55.388;37.844;2024-02-23T06:18:44;66.77;;;30.40;;
26014;SDS011;13793;55.388;37.844;2024-02-23T06:21:15;63.97;;;29.47;;
26014;SDS011;13793;55.388;37.844;2024-02-23T06:23:58;62.40;;;29.93;;
26014;SDS011;13793;55.388;37.844;2024-02-23T06:26:29;70.13;;;30.73;;
26014;SDS011;13793;55.388;37.844;2024-02-23T06:29:00;64.37;;;29.53;;
26014;SDS011;13793;55.388;37.844;2024-02-23T06:31:32;65.67;;;28.50;;
26014;SDS011;13793;55.388;37.844;2024-02-23T06:34:03;68.20;;;30.97;;
26014;SDS011;13793;55.388;37.844;2024-02-23T06:36:35;63.27;;;28.40;;
26014;SDS011;13793;55.388;37.844;2024-02-23T06:39:05;63.17;;;29.43;;
26014;SDS011;13793;55.388;37.844;2024-02-23T06:41:37;61.97;;;28.43;;
26014;SDS011;13793;55.388;37.844;2024-02-23T06:44:08;59.77;;;26.43;;
26014;SDS011;13793;55.388;37.844;2024-02-23T06:46:39;55.10;;;27.53;;
26014;SDS011;13793;55.388;37.844;2024-02-23T06:49:10;62.20;;;27.80;;
26014;SDS011;13793;55.388;37.844;2024-02-23T06:51:41;58.37;;;26.97;;
26014;SDS011;13793;55.388;37.844;2024-02-23T06:54:12;56.87;;;27.73;;
26014;SDS011;13793;55.388;37.844;2024-02-23T06:56:43;55.77;;;25.23;;
26014;SDS011;13793;55.388;37.844;2024-02-23T06:59:14;55.10;;;24.90;;
26014;SDS011;13793;55.388;37.844;2024-02-23T07:01:48;50.73;;;25.43;;
26014;SDS011;13793;55.388;37.844;2024-02-23T07:04:19;52.90;;;25.63;;
26014;SDS011;13793;55.388;37.844;2024-02-23T07:06:50;56.43;;;24.43;;
26014;SDS011;13793;55.388;37.844;2024-02-23T07:09:21;53.07;;;25.27;;
26014;SDS011;13793;55.388;37.844;2024-02-23T07:11:52;53.00;;;24.00;;
26014;SDS011;13793;55.388;37.844;2024-02-23T07:14:23;52.77;;;25.70;;
26014;SDS011;13793;55.388;37.844;2024-02-23T07:16:53;51.57;;;25.33;;
26014;SDS011;13793;55.388;37.844;2024-02-23T07:19:24;53.23;;;24.97;;
26014;SDS011;13793;55.388;37.844;2024-02-23T07:21:55;58.10;;;26.27;;
26014;SDS011;13793;55.388;37.844;2024-02-23T07:24:26;50.80;;;24.43;;
26014;SDS011;13793;55.388;37.844;2024-02-23T07:26:56;52.27;;;25.17;;
26014;SDS011;13793;55.388;37.844;2024-02-23T07:29:27;51.47;;;24.90;;
26014;SDS011;13793;55.388;37.844;2024-02-23T07:31:58;49.07;;;22.63;;
26014;SDS011;13793;55.388;37.844;2024-02-23T07:34:30;52.93;;;27.17;;
26014;SDS011;13793;55.388;37.844;2024-02-23T07:37:01;49.90;;;24.17;;
26014;SDS011;13793;55.388;37.844;2024-02-23T07:39:32;48.00;;;23.87;;
26014;SDS011;13793;55.388;37.844;2024-02-23T07:42:03;49.50;;;24.63;;
26014;SDS011;13793;55.388;37.844;2024-02-23T07:44:35;49.57;;;25.70;;
26014;SDS011;13793;55.388;37.844;2024-02-23T07:47:06;41.87;;;22.47;;
26014;SDS011;13793;55.388;37.844;2024-02-23T07:49:37;43.33;;;22.73;;
26014;SDS011;13793;55.388;37.844;2024-02-23T07:52:09;43.90;;;22.17;;
26014;SDS011;13793;55.388;37.844;2024-02-23T07:54:40;40.03;;;21.20;;
26014;SDS011;13793;55.388;37.844;2024-02-23T07:57:11;44.10;;;20.43;;
26014;SDS011;13793;55.388;37.844;2024-02-23T07:59:44;36.00;;;19.63;;
26014;SDS011;13793;55.388;37.844;2024-02-23T08:02:15;39.73;;;21.33;;
26014;SDS011;13793;55.388;37.844;2024-02-23T08:04:46;41.53;;;20.90;;
26014;SDS011;13793;55.388;37.844;2024-02-23T08:07:18;38.50;;;20.37;;
26014;SDS011;13793;55.388;37.844;2024-02-23T08:09:49;36.60;;;20.33;;
26014;SDS011;13793;55.388;37.844;2024-02-23T08:12:20;35.97;;;20.97;;
26014;SDS011;13793;55.388;37.844;2024-02-23T08:14:51;36.80;;;19.50;;
26014;SDS011;13793;55.388;37.844;2024-02-23T08:17:21;37.47;;;20.57;;
26014;SDS011;13793;55.388;37.844;2024-02-23T08:19:54;37.57;;;20.80;;
26014;SDS011;13793;55.388;37.844;2024-02-23T08:22:25;36.60;;;20.67;;
26014;SDS011;13793;55.388;37.844;2024-02-23T08:24:56;39.83;;;21.73;;
26014;SDS011;13793;55.388;37.844;2024-02-23T08:27:28;37.67;;;20.23;;
26014;SDS011;13793;55.388;37.844;2024-02-23T08:29:59;38.57;;;20.40;;
26014;SDS011;13793;55.388;37.844;2024-02-23T08:32:30;40.90;;;22.20;;
26014;SDS011;13793;55.388;37.844;2024-02-23T08:35:00;35.50;;;20.47;;
26014;SDS011;13793;55.388;37.844;2024-02-23T08:37:31;40.73;;;21.30;;
26014;SDS011;13793;55.388;37.844;2024-02-23T08:40:02;38.67;;;20.43;;
26014;SDS011;13793;55.388;37.844;2024-02-23T08:42:34;38.30;;;21.07;;
26014;SDS011;13793;55.388;37.844;2024-02-23T08:45:05;37.07;;;20.80;;
26014;SDS011;13793;55.388;37.844;2024-02-23T08:47:38;38.33;;;21.43;;
26014;SDS011;13793;55.388;37.844;2024-02-23T08:50:11;39.83;;;20.93;;
26014;SDS011;13793;55.388;37.844;2024-02-23T08:52:42;40.03;;;21.03;;
26014;SDS011;13793;55.388;37.844;2024-02-23T08:55:14;36.23;;;21.17;;
26014;SDS011;13793;55.388;37.844;2024-02-23T08:57:44;38.33;;;21.03;;
26014;SDS011;13793;55.388;37.844;2024-02-23T09:00:15;39.47;;;21.10;;
26014;SDS011;13793;55.388;37.844;2024-02-23T09:02:46;39.40;;;21.30;;
26014;SDS011;13793;55.388;37.844;2024-02-23T09:05:18;39.40;;;22.07;;
26014;SDS011;13793;55.388;37.844;2024-02-23T09:07:49;43.37;;;22.43;;
26014;SDS011;13793;55.388;37.844;2024-02-23T09:10:20;39.00;;;21.20;;
26014;SDS011;13793;55.388;37.844;2024-02-23T09:12:51;39.10;;;21.03;;
26014;SDS011;13793;55.388;37.844;2024-02-23T09:15:22;44.60;;;21.70;;
26014;SDS011;13793;55.388;37.844;2024-02-23T09:17:53;40.23;;;21.57;;
26014;SDS011;13793;55.388;37.844;2024-02-23T09:20:24;39.33;;;22.80;;
26014;SDS011;13793;55.388;37.844;2024-02-23T09:22:55;41.37;;;21.33;;
26014;SDS011;13793;55.388;37.844;2024-02-23T09:25:26;42.57;;;22.00;;
26014;SDS011;13793;55.388;37.844;2024-02-23T09:27:57;39.57;;;22.13;;
26014;SDS011;13793;55.388;37.844;2024-02-23T09:30:28;43.90;;;22.13;;
26014;SDS011;13793;55.388;37.844;2024-02-23T09:32:59;44.50;;;23.33;;
26014;SDS011;13793;55.388;37.844;2024-02-23T09:35:29;40.20;;;22.30;;
26014;SDS011;13793;55.388;37.844;2024-02-23T09:38:00;42.03;;;22.67;;
26014;SDS011;13793;55.388;37.844;2024-02-23T09:40:32;42.63;;;22.37;;
26014;SDS011;13793;55.388;37.844;2024-02-23T09:43:03;44.33;;;23.30;;
26014;SDS011;13793;55.388;37.844;2024-02-23T09:45:35;43.07;;;23.47;;
26014;SDS011;13793;55.388;37.844;2024-02-23T09:48:06;46.67;;;22.97;;
26014;SDS011;13793;55.388;37.844;2024-02-23T09:50:37;47.00;;;22.80;;
26014;SDS011;13793;55.388;37.844;2024-02-23T09:53:08;41.77;;;21.47;;
26014;SDS011;13793;55.388;37.844;2024-02-23T09:55:40;42.50;;;22.20;;
26014;SDS011;13793;55.388;37.844;2024-02-23T09:58:12;43.67;;;22.70;;
26014;SDS011;13793;55.388;37.844;2024-02-23T10:00:45;38.20;;;21.00;;
26014;SDS011;13793;55.388;37.844;2024-02-23T10:03:17;47.03;;;22.50;;
26014;SDS011;13793;55.388;37.844;2024-02-23T10:05:48;41.10;;;21.97;;
26014;SDS011;13793;55.388;37.844;2024-02-23T10:08:19;38.83;;;21.27;;
26014;SDS011;13793;55.388;37.844;2024-02-23T10:10:50;40.03;;;21.43;;
26014;SDS011;13793;55.388;37.844;2024-02-23T10:13:22;43.03;;;22.03;;
26014;SDS011;13793;55.388;37.844;2024-02-23T10:15:53;37.03;;;20.60;;
26014;SDS011;13793;55.388;37.844;2024-02-23T10:18:25;43.30;;;21.07;;
26014;SDS011;13793;55.388;37.844;2024-02-23T10:20:56;41.90;;;20.57;;
26014;SDS011;13793;55.388;37.844;2024-02-23T10:23:27;40.97;;;21.77;;
26014;SDS011;13793;55.388;37.844;2024-02-23T10:25:59;44.07;;;21.30;;
26014;SDS011;13793;55.388;37.844;2024-02-23T10:28:30;41.40;;;21.87;;
26014;SDS011;13793;55.388;37.844;2024-02-23T10:31:01;46.83;;;22.77;;
26014;SDS011;13793;55.388;37.844;2024-02-23T10:33:32;44.27;;;20.47;;
26014;SDS011;13793;55.388;37.844;2024-02-23T10:36:05;41.73;;;20.60;;
26014;SDS011;13793;55.388;37.844;2024-02-23T10:38:38;50.40;;;25.63;;
26014;SDS011;13793;55.388;37.844;2024-02-23T10:41:08;46.17;;;22.97;;
26014;SDS011;13793;55.388;37.844;2024-02-23T10:43:46;45.40;;;23.17;;
26014;SDS011;13793;55.388;37.844;2024-02-23T10:46:17;46.47;;;23.63;;
26014;SDS011;13793;55.388;37.844;2024-02-23T10:48:49;48.47;;;22.90;;
26014;SDS011;13793;55.388;37.844;2024-02-23T10:51:21;49.27;;;23.60;;
26014;SDS011;13793;55.388;37.844;2024-02-23T10:53:53;51.23;;;23.93;;
26014;SDS011;13793;55.388;37.844;2024-02-23T10:56:24;48.17;;;23.03;;
26014;SDS011;13793;55.388;37.844;2024-02-23T10:58:59;45.97;;;23.90;;
26014;SDS011;13793;55.388;37.844;2024-02-23T11:01:31;49.27;;;23.30;;
26014;SDS011;13793;55.388;37.844;2024-02-23T11:04:02;47.60;;;23.03;;
26014;SDS011;13793;55.388;37.844;2024-02-23T11:06:34;51.83;;;23.77;;
26014;SDS011;13793;55.388;37.844;2024-02-23T11:09:12;50.37;;;23.87;;
26014;SDS011;13793;55.388;37.844;2024-02-23T11:11:37;48.53;;;23.60;;
26014;SDS011;13793;55.388;37.844;2024-02-23T11:14:09;48.63;;;23.73;;
26014;SDS011;13793;55.388;37.844;2024-02-23T11:16:39;49.73;;;24.23;;
26014;SDS011;13793;55.388;37.844;2024-02-23T11:19:10;49.90;;;23.60;;
26014;SDS011;13793;55.388;37.844;2024-02-23T11:21:41;49.17;;;24.80;;
26014;SDS011;13793;55.388;37.844;2024-02-23T11:24:15;57.80;;;25.13;;
26014;SDS011;13793;55.388;37.844;2024-02-23T11:26:47;56.67;;;25.57;;
26014;SDS011;13793;55.388;37.844;2024-02-23T11:29:19;59.63;;;27.60;;
26014;SDS011;13793;55.388;37.844;2024-02-23T11:31:50;64.13;;;28.20;;
26014;SDS011;13793;55.388;37.844;2024-02-23T11:34:23;63.80;;;27.80;;
26014;SDS011;13793;55.388;37.844;2024-02-23T11:36:54;62.30;;;28.33;;
26014;SDS011;13793;55.388;37.844;2024-02-23T11:39:26;63.77;;;27.50;;
26014;SDS011;13793;55.388;37.844;2024-02-23T11:41:57;67.30;;;27.67;;
26014;SDS011;13793;55.388;37.844;2024-02-23T11:44:32;63.43;;;28.17;;
26014;SDS011;13793;55.388;37.844;2024-02-23T11:47:21;58.17;;;26.30;;
26014;SDS011;13793;55.388;37.844;2024-02-23T11:49:52;67.30;;;27.30;;
26014;SDS011;13793;55.388;37.844;2024-02-23T11:52:26;64.03;;;27.03;;
26014;SDS011;13793;55.388;37.844;2024-02-23T11:54:57;67.87;;;28.17;;
26014;SDS011;13793;55.388;37.844;2024-02-23T11:57:29;67.77;;;28.17;;
26014;SDS011;13793;55.388;37.844;2024-02-23T12:00:03;70.13;;;29.43;;
26014;SDS011;13793;55.388;37.844;2024-02-23T12:02:35;61.47;;;27.90;;
26014;SDS011;13793;55.388;37.844;2024-02-23T12:05:07;68.77;;;28.33;;
26014;SDS011;13793;55.388;37.844;2024-02-23T12:07:38;67.43;;;28.70;;
26014;SDS011;13793;55.388;37.844;2024-02-23T12:10:09;68.60;;;27.63;;
26014;SDS011;13793;55.388;37.844;2024-02-23T12:12:40;71.90;;;29.67;;
26014;SDS011;13793;55.388;37.844;2024-02-23T12:15:11;67.30;;;29.27;;
26014;SDS011;13793;55.388;37.844;2024-02-23T12:17:57;77.60;;;32.27;;
26014;SDS011;13793;55.388;37.844;2024-02-23T12:20:32;72.53;;;30.53;;
26014;SDS011;13793;55.388;37.844;2024-02-23T12:23:03;76.37;;;31.73;;
26014;SDS011;13793;55.388;37.844;2024-02-23T12:25:37;75.50;;;30.63;;
26014;SDS011;13793;55.388;37.844;2024-02-23T12:28:09;74.63;;;31.40;;
26014;SDS011;13793;55.388;37.844;2024-02-23T12:30:39;73.73;;;31.13;;
26014;SDS011;13793;55.388;37.844;2024-02-23T12:33:11;75.13;;;31.90;;
26014;SDS011;13793;55.388;37.844;2024-02-23T12:35:41;78.27;;;32.40;;
26014;SDS011;13793;55.388;37.844;2024-02-23T12:38:13;82.63;;;34.53;;
26014;SDS011;13793;55.388;37.844;2024-02-23T12:40:43;78.90;;;33.40;;
26014;SDS011;13793;55.388;37.844;2024-02-23T12:43:14;78.00;;;32.73;;
26014;SDS011;13793;55.388;37.844;2024-02-23T12:45:45;79.60;;;32.43;;
26014;SDS011;13793;55.388;37.844;2024-02-23T12:48:18;78.73;;;31.77;;
26014;SDS011;13793;55.388;37.844;2024-02-23T12:50:49;81.10;;;30.13;;
26014;SDS011;13793;55.388;37.844;2024-02-23T12:53:30;83.23;;;33.53;;
26014;SDS011;13793;55.388;37.844;2024-02-23T12:56:08;80.77;;;31.73;;
26014;SDS011;13793;55.388;37.844;2024-02-23T12:58:44;79.30;;;33.40;;
26014;SDS011;13793;55.388;37.844;2024-02-23T13:01:15;85.03;;;34.90;;
26014;SDS011;13793;55.388;37.844;2024-02-23T13:03:47;81.87;;;33.47;;
26014;SDS011;13793;55.388;37.844;2024-02-23T13:06:18;83.30;;;34.13;;
26014;SDS011;13793;55.388;37.844;2024-02-23T13:08:50;92.20;;;35.63;;
26014;SDS011;13793;55.388;37.844;2024-02-23T13:11:21;86.40;;;36.23;;
26014;SDS011;13793;55.388;37.844;2024-02-23T13:13:52;89.93;;;35.83;;
26014;SDS011;13793;55.388;37.844;2024-02-23T13:16:23;86.33;;;35.00;;
26014;SDS011;13793;55.388;37.844;2024-02-23T13:18:54;90.73;;;35.60;;
26014;SDS011;13793;55.388;37.844;2024-02-23T13:21:25;88.93;;;36.83;;
26014;SDS011;13793;55.388;37.844;2024-02-23T13:23:57;89.10;;;36.20;;
26014;SDS011;13793;55.388;37.844;2024-02-23T13:26:28;92.20;;;37.53;;
26014;SDS011;13793;55.388;37.844;2024-02-23T13:28:59;95.17;;;37.73;;
26014;SDS011;13793;55.388;37.844;2024-02-23T13:31:30;87.10;;;37.77;;
26014;SDS011;13793;55.388;37.844;2024-02-23T13:34:01;90.63;;;36.60;;
26014;SDS011;13793;55.388;37.844;2024-02-23T13:36:32;96.30;;;39.37;;
26014;SDS011;13793;55.388;37.844;2024-02-23T13:39:02;92.03;;;38.80;;
26014;SDS011;13793;55.388;37.844;2024-02-23T13:41:33;98.90;;;40.57;;
26014;SDS011;13793;55.388;37.844;2024-02-23T13:44:04;96.67;;;39.37;;
26014;SDS011;13793;55.388;37.844;2024-02-23T13:46:36;93.27;;;39.87;;
26014;SDS011;13793;55.388;37.844;2024-02-23T13:49:10;94.10;;;40.03;;
26014;SDS011;13793;55.388;37.844;2024-02-23T13:51:43;96.30;;;40.33;;
26014;SDS011;13793;55.388;37.844;2024-02-23T13:54:14;92.73;;;38.63;;
26014;SDS011;13793;55.388;37.844;2024-02-23T13:56:45;101.43;;;41.07;;
26014;SDS011;13793;55.388;37.844;2024-02-23T13:59:16;100.93;;;42.27;;
26014;SDS011;13793;55.388;37.844;2024-02-23T14:01:47;91.43;;;40.90;;
26014;SDS011;13793;55.388;37.844;2024-02-23T14:04:18;97.00;;;41.00;;
26014;SDS011;13793;55.388;37.844;2024-02-23T14:06:49;97.80;;;41.23;;
26014;SDS011;13793;55.388;37.844;2024-02-23T14:09:21;91.20;;;41.10;;
26014;SDS011;13793;55.388;37.844;2024-02-23T14:11:52;91.07;;;40.20;;
26014;SDS011;13793;55.388;37.844;2024-02-23T14:14:23;96.27;;;41.60;;
26014;SDS011;13793;55.388;37.844;2024-02-23T14:16:54;97.37;;;41.10;;
26014;SDS011;13793;55.388;37.844;2024-02-23T14:19:25;94.03;;;41.03;;
26014;SDS011;13793;55.388;37.844;2024-02-23T14:21:56;91.10;;;40.90;;
26014;SDS011;13793;55.388;37.844;2024-02-23T14:24:27;95.60;;;41.20;;
26014;SDS011;13793;55.388;37.844;2024-02-23T14:26:58;94.67;;;42.60;;
26014;SDS011;13793;55.388;37.844;2024-02-23T14:29:28;92.00;;;41.87;;
26014;SDS011;13793;55.388;37.844;2024-02-23T14:31:59;94.37;;;41.73;;